sensor_id;sensor_type;location;lat;lon;timestamp;pressure;altitude;pressure_sealevel;temperature;humidity
46267;BME280;31998;48.798;15.066;2022-10-16T00:00:42;95811.56;;;10.43;100.00
46267;BME280;31998;48.798;15.066;2022-10-16T00:03:08;95816.00;;;10.57;100.00
46267;BME280;31998;48.798;15.066;2022-10-16T00:05:39;95803.56;;;10.62;100.00
46267;BME280;31998;48.798;15.066;2022-10-16T00:08:05;95790.97;;;10.57;100.00
46267;BME280;31998;48.798;15.066;2022-10-16T00:10:31;95795.81;;;10.55;100.00
46267;BME280;31998;48.798;15.066;2022-10-16T00:12:56;95811.97;;;10.55;100.00
46267;BME280;31998;48.798;15.066;2022-10-16T00:15:22;95802.81;;;10.56;100.00
46267;BME280;31998;48.798;15.066;2022-10-16T00:17:47;95806.25;;;10.62;100.00
46267;BME280;31998;48.798;15.066;2022-10-16T00:20:12;95800.31;;;10.65;100.00
46267;BME280;31998;48.798;15.066;2022-10-16T00:22:38;95805.69;;;10.65;100.00
46267;BME280;31998;48.798;15.066;2022-10-16T00:25:04;95801.44;;;10.58;100.00
46267;BME280;31998;48.798;15.066;2022-10-16T00:27:29;95810.53;;;10.63;100.00
46267;BME280;31998;48.798;15.066;2022-10-16T00:29:54;95811.63;;;10.62;100.00
46267;BME280;31998;48.798;15.066;2022-10-16T00:32:20;95816.44;;;10.65;100.00
46267;BME280;31998;48.798;15.066;2022-10-16T00:34:46;95810.03;;;10.60;100.00
46267;BME280;31998;48.798;15.066;2022-10-16T00:37:12;95821.25;;;10.68;100.00
46267;BME280;31998;48.798;15.066;2022-10-16T00:39:38;95818.03;;;10.66;100.00
46267;BME280;31998;48.798;15.066;2022-10-16T00:42:03;95826.06;;;10.71;100.00
46267;BME280;31998;48.798;15.066;2022-10-16T00:45:01;95820.75;;;10.66;100.00
46267;BME280;31998;48.798;15.066;2022-10-16T00:47:41;95831.00;;;10.64;100.00
46267;BME280;31998;48.798;15.066;2022-10-16T00:50:10;95819.25;;;10.54;100.00
46267;BME280;31998;48.798;15.066;2022-10-16T00:52:43;95828.22;;;10.69;100.00
46267;BME280;31998;48.798;15.066;2022-10-16T00:55:09;95828.22;;;10.69;100.00
46267;BME280;31998;48.798;15.066;2022-10-16T00:57:36;95825.03;;;10.67;100.00
46267;BME280;31998;48.798;15.066;2022-10-16T01:00:04;95816.44;;;10.65;100.00
46267;BME280;31998;48.798;15.066;2022-10-16T01:02:30;95812.31;;;10.48;100.00
46267;BME280;31998;48.798;15.066;2022-10-16T01:04:55;95815.53;;;10.50;100.00
46267;BME280;31998;48.798;15.066;2022-10-16T01:12:54;95830.22;;;10.34;100.00
46267;BME280;31998;48.798;15.066;2022-10-16T01:21:01;95857.16;;;10.29;100.00
46267;BME280;31998;48.798;15.066;2022-10-16T01:28:51;95847.81;;;10.50;100.00
46267;BME280;31998;48.798;15.066;2022-10-16T01:31:21;95838.13;;;10.49;100.00
46267;BME280;31998;48.798;15.066;2022-10-16T01:33:56;95840.09;;;10.44;100.00
46267;BME280;31998;48.798;15.066;2022-10-16T01:36:47;95833.97;;;10.38;100.00
46267;BME280;31998;48.798;15.066;2022-10-16T01:39:18;95841.63;;;10.21;100.00
46267;BME280;31998;48.798;15.066;2022-10-16T01:41:50;95852.41;;;10.16;100.00
46267;BME280;31998;48.798;15.066;2022-10-16T01:44:22;95848.41;;;10.13;100.00
46267;BME280;31998;48.798;15.066;2022-10-16T01:46:51;95853.75;;;10.18;100.00
46267;BME280;31998;48.798;15.066;2022-10-16T01:49:18;95857.53;;;10.17;100.00
46267;BME280;31998;48.798;15.066;2022-10-16T01:51:47;95849.69;;;10.21;100.00
46267;BME280;31998;48.798;15.066;2022-10-16T01:54:14;95850.94;;;10.33;100.00
46267;BME280;31998;48.798;15.066;2022-10-16T01:56:45;95838.28;;;10.34;100.00
46267;BME280;31998;48.798;15.066;2022-10-16T01:59:14;95850.31;;;10.42;100.00
46267;BME280;31998;48.798;15.066;2022-10-16T02:01:46;95840.44;;;10.37;100.00
46267;BME280;31998;48.798;15.066;2022-10-16T02:04:39;95847.91;;;10.40;100.00
46267;BME280;31998;48.798;15.066;2022-10-16T02:07:07;95844.72;;;10.38;100.00
46267;BME280;31998;48.798;15.066;2022-10-16T02:09:34;95838.25;;;10.39;100.00
46267;BME280;31998;48.798;15.066;2022-10-16T02:12:05;95847.91;;;10.40;100.00
46267;BME280;31998;48.798;15.066;2022-10-16T02:14:32;95845.56;;;10.33;100.00
46267;BME280;31998;48.798;15.066;2022-10-16T02:16:58;95849.09;;;10.29;100.00
46267;BME280;31998;48.798;15.066;2022-10-16T02:19:23;95848.34;;;10.23;100.00
46267;BME280;31998;48.798;15.066;2022-10-16T02:21:54;95843.53;;;10.15;100.00
46267;BME280;31998;48.798;15.066;2022-10-16T02:24:43;95859.41;;;10.17;100.00
46267;BME280;31998;48.798;15.066;2022-10-16T02:27:38;95863.72;;;10.18;100.00
46267;BME280;31998;48.798;15.066;2022-10-16T02:30:13;95843.44;;;9.96;100.00
46267;BME280;31998;48.798;15.066;2022-10-16T02:32:42;95862.84;;;9.93;100.00
46267;BME280;31998;48.798;15.066;2022-10-16T02:35:10;95860.22;;;9.83;100.00
46267;BME280;31998;48.798;15.066;2022-10-16T02:37:36;95868.38;;;9.73;100.00
46267;BME280;31998;48.798;15.066;2022-10-16T02:40:04;95859.81;;;9.66;100.00
46267;BME280;31998;48.798;15.066;2022-10-16T02:42:38;95851.28;;;9.59;100.00
46267;BME280;31998;48.798;15.066;2022-10-16T02:45:05;95855.06;;;9.52;100.00
46267;BME280;31998;48.798;15.066;2022-10-16T02:47:30;95863.16;;;9.47;100.00
46267;BME280;31998;48.798;15.066;2022-10-16T02:49:56;95862.13;;;9.38;100.00
46267;BME280;31998;48.798;15.066;2022-10-16T02:52:21;95864.28;;;9.36;100.00
46267;BME280;31998;48.798;15.066;2022-10-16T02:54:46;95869.16;;;9.34;100.00
46267;BME280;31998;48.798;15.066;2022-10-16T02:57:12;95883.34;;;9.40;100.00
46267;BME280;31998;48.798;15.066;2022-10-16T02:59:37;95884.72;;;9.32;100.00
46267;BME280;31998;48.798;15.066;2022-10-16T03:02:03;95884.19;;;9.30;100.00
46267;BME280;31998;48.798;15.066;2022-10-16T03:04:28;95885.06;;;9.20;100.00
46267;BME280;31998;48.798;15.066;2022-10-16T03:06:54;95891.72;;;9.28;100.00
46267;BME280;31998;48.798;15.066;2022-10-16T03:09:19;95883.97;;;9.21;100.00
46267;BME280;31998;48.798;15.066;2022-10-16T03:11:44;95896.63;;;9.11;100.00
46267;BME280;31998;48.798;15.066;2022-10-16T03:14:10;95891.56;;;9.04;100.00
46267;BME280;31998;48.798;15.066;2022-10-16T03:16:35;95892.94;;;8.96;100.00
46267;BME280;31998;48.798;15.066;2022-10-16T03:19:01;95899.09;;;9.02;100.00
46267;BME280;31998;48.798;15.066;2022-10-16T03:21:26;95889.16;;;9.08;100.00
46267;BME280;31998;48.798;15.066;2022-10-16T03:23:51;95899.59;;;9.14;100.00
46267;BME280;31998;48.798;15.066;2022-10-16T03:26:17;95893.38;;;9.19;100.00
46267;BME280;31998;48.798;15.066;2022-10-16T03:28:42;95890.66;;;9.24;100.00
46267;BME280;31998;48.798;15.066;2022-10-16T03:31:07;95896.00;;;9.34;100.00
46267;BME280;31998;48.798;15.066;2022-10-16T03:33:33;95895.69;;;9.41;100.00
46267;BME280;31998;48.798;15.066;2022-10-16T03:35:58;95888.44;;;9.41;100.00
46267;BME280;31998;48.798;15.066;2022-10-16T03:38:24;95903.16;;;9.49;100.00
46267;BME280;31998;48.798;15.066;2022-10-16T03:40:49;95889.44;;;9.50;100.00
46267;BME280;31998;48.798;15.066;2022-10-16T03:43:15;95897.69;;;9.64;100.00
46267;BME280;31998;48.798;15.066;2022-10-16T03:45:40;95896.31;;;9.72;100.00
46267;BME280;31998;48.798;15.066;2022-10-16T03:48:06;95902.19;;;9.79;100.00
46267;BME280;31998;48.798;15.066;2022-10-16T03:50:31;95901.78;;;9.96;100.00
46267;BME280;31998;48.798;15.066;2022-10-16T03:52:56;95897.31;;;9.86;100.00
46267;BME280;31998;48.798;15.066;2022-10-16T03:55:22;95902.66;;;9.91;100.00
46267;BME280;31998;48.798;15.066;2022-10-16T03:57:47;95906.88;;;9.97;100.00
46267;BME280;31998;48.798;15.066;2022-10-16T04:00:13;95907.41;;;9.99;100.00
46267;BME280;31998;48.798;15.066;2022-10-16T04:02:38;95904.75;;;9.94;100.00
46267;BME280;31998;48.798;15.066;2022-10-16T04:05:04;95910.94;;;9.95;100.00
46267;BME280;31998;48.798;15.066;2022-10-16T04:07:30;95910.66;;;9.96;100.00
46267;BME280;31998;48.798;15.066;2022-10-16T04:09:55;95907.97;;;9.96;100.00
46267;BME280;31998;48.798;15.066;2022-10-16T04:12:22;95904.19;;;9.97;100.00
46267;BME280;31998;48.798;15.066;2022-10-16T04:14:47;95906.84;;;10.02;100.00
46267;BME280;31998;48.798;15.066;2022-10-16T04:17:13;95905.25;;;10.01;100.00
46267;BME280;31998;48.798;15.066;2022-10-16T04:19:38;95912.50;;;10.01;100.00
46267;BME280;31998;48.798;15.066;2022-10-16T04:22:03;95910.88;;;10.05;100.00
46267;BME280;31998;48.798;15.066;2022-10-16T04:24:29;95904.63;;;10.10;100.00
46267;BME280;31998;48.798;15.066;2022-10-16T04:26:54;95895.22;;;10.12;100.00
46267;BME280;31998;48.798;15.066;2022-10-16T04:29:20;95899.72;;;10.17;100.00
46267;BME280;31998;48.798;15.066;2022-10-16T04:31:46;95907.53;;;10.18;100.00
46267;BME280;31998;48.798;15.066;2022-10-16T04:34:11;95920.44;;;10.16;100.00
46267;BME280;31998;48.798;15.066;2022-10-16T04:36:37;95911.34;;;10.12;100.00
46267;BME280;31998;48.798;15.066;2022-10-16T04:39:02;95919.09;;;10.19;100.00
46267;BME280;31998;48.798;15.066;2022-10-16T04:41:28;95916.13;;;10.20;100.00
46267;BME280;31998;48.798;15.066;2022-10-16T04:43:53;95919.09;;;10.19;100.00
46267;BME280;31998;48.798;15.066;2022-10-16T04:46:18;95915.63;;;10.18;100.00
46267;BME280;31998;48.798;15.066;2022-10-16T04:48:44;95926.38;;;10.18;100.00
46267;BME280;31998;48.798;15.066;2022-10-16T04:51:09;95918.09;;;10.10;100.00
46267;BME280;31998;48.798;15.066;2022-10-16T04:53:35;95933.66;;;10.13;100.00
46267;BME280;31998;48.798;15.066;2022-10-16T04:56:00;95936.41;;;10.07;100.00
46267;BME280;31998;48.798;15.066;2022-10-16T04:58:25;95939.84;;;10.13;100.00
46267;BME280;31998;48.798;15.066;2022-10-16T05:00:51;95943.84;;;10.16;100.00
46267;BME280;31998;48.798;15.066;2022-10-16T05:03:16;95943.59;;;10.17;100.00
46267;BME280;31998;48.798;15.066;2022-10-16T05:05:43;95942.81;;;10.12;100.00
46267;BME280;31998;48.798;15.066;2022-10-16T05:08:09;95942.88;;;10.01;100.00
46267;BME280;31998;48.798;15.066;2022-10-16T05:10:35;95934.28;;;10.04;100.00
46267;BME280;31998;48.798;15.066;2022-10-16T05:13:00;95939.59;;;10.10;100.00
46267;BME280;31998;48.798;15.066;2022-10-16T05:15:25;95947.66;;;10.10;100.00
46267;BME280;31998;48.798;15.066;2022-10-16T05:17:55;95940.94;;;10.12;100.00
46267;BME280;31998;48.798;15.066;2022-10-16T05:20:21;95953.31;;;10.08;100.00
46267;BME280;31998;48.798;15.066;2022-10-16T05:22:47;95950.44;;;9.99;100.00
46267;BME280;31998;48.798;15.066;2022-10-16T05:25:13;95942.97;;;9.91;100.00
46267;BME280;31998;48.798;15.066;2022-10-16T05:27:38;95960.91;;;10.01;100.00
46267;BME280;31998;48.798;15.066;2022-10-16T05:30:04;95964.66;;;10.05;100.00
46267;BME280;31998;48.798;15.066;2022-10-16T05:32:29;95970.25;;;10.09;100.00
46267;BME280;31998;48.798;15.066;2022-10-16T05:34:54;95974.56;;;10.10;100.00
46267;BME280;31998;48.798;15.066;2022-10-16T05:37:20;95965.94;;;10.13;100.00
46267;BME280;31998;48.798;15.066;2022-10-16T05:39:45;95968.03;;;10.21;100.00
46267;BME280;31998;48.798;15.066;2022-10-16T05:42:11;95952.69;;;10.21;100.00
46267;BME280;31998;48.798;15.066;2022-10-16T05:44:36;95961.25;;;10.33;100.00
46267;BME280;31998;48.798;15.066;2022-10-16T05:47:01;95971.72;;;10.35;100.00
46267;BME280;31998;48.798;15.066;2022-10-16T05:49:27;95958.56;;;10.33;100.00
46267;BME280;31998;48.798;15.066;2022-10-16T05:51:52;95957.19;;;10.36;100.00
46267;BME280;31998;48.798;15.066;2022-10-16T05:54:18;95961.25;;;10.33;100.00
46267;BME280;31998;48.798;15.066;2022-10-16T05:56:43;95962.66;;;10.26;100.00
46267;BME280;31998;48.798;15.066;2022-10-16T05:59:08;95952.78;;;10.11;100.00
46267;BME280;31998;48.798;15.066;2022-10-16T06:01:34;95973.44;;;10.16;100.00
46267;BME280;31998;48.798;15.066;2022-10-16T06:04:00;95982.09;;;10.13;100.00
46267;BME280;31998;48.798;15.066;2022-10-16T06:06:28;95980.38;;;10.22;100.00
46267;BME280;31998;48.798;15.066;2022-10-16T06:08:55;95977.69;;;10.22;100.00
46267;BME280;31998;48.798;15.066;2022-10-16T06:11:27;95979.06;;;10.24;100.00
46267;BME280;31998;48.798;15.066;2022-10-16T06:13:55;95979.31;;;10.28;100.00
46267;BME280;31998;48.798;15.066;2022-10-16T06:16:22;95981.13;;;10.38;100.00
46267;BME280;31998;48.798;15.066;2022-10-16T06:18:50;95989.72;;;10.40;100.00
46267;BME280;31998;48.798;15.066;2022-10-16T06:21:18;95984.31;;;10.45;100.00
46267;BME280;31998;48.798;15.066;2022-10-16T06:23:44;95984.53;;;10.48;100.00
46267;BME280;31998;48.798;15.066;2022-10-16T06:26:15;95985.00;;;10.55;100.00
46267;BME280;31998;48.798;15.066;2022-10-16T06:28:41;95988.72;;;10.65;100.00
46267;BME280;31998;48.798;15.066;2022-10-16T06:31:08;95991.59;;;10.73;100.00
46267;BME280;31998;48.798;15.066;2022-10-16T06:33:35;95983.47;;;10.78;100.00
46267;BME280;31998;48.798;15.066;2022-10-16T06:38:28;95996.22;;;11.21;100.00
46267;BME280;31998;48.798;15.066;2022-10-16T06:40:53;96006.56;;;11.37;100.00
46267;BME280;31998;48.798;15.066;2022-10-16T06:43:19;96011.63;;;11.44;100.00
46267;BME280;31998;48.798;15.066;2022-10-16T06:45:56;96021.47;;;11.54;100.00
46267;BME280;31998;48.798;15.066;2022-10-16T06:48:22;96029.38;;;11.69;100.00
46267;BME280;31998;48.798;15.066;2022-10-16T06:51:03;96033.81;;;11.84;100.00
46267;BME280;31998;48.798;15.066;2022-10-16T06:53:31;96040.16;;;11.93;100.00
46267;BME280;31998;48.798;15.066;2022-10-16T06:55:57;96035.31;;;12.14;100.00
46267;BME280;31998;48.798;15.066;2022-10-16T06:58:23;96031.81;;;12.13;100.00
46267;BME280;31998;48.798;15.066;2022-10-16T07:00:49;96037.72;;;12.15;100.00
46267;BME280;31998;48.798;15.066;2022-10-16T07:03:20;96033.63;;;12.18;100.00
46267;BME280;31998;48.798;15.066;2022-10-16T07:05:45;96035.41;;;12.28;100.00
46267;BME280;31998;48.798;15.066;2022-10-16T07:08:11;96041.91;;;12.45;100.00
46267;BME280;31998;48.798;15.066;2022-10-16T07:10:36;96041.53;;;12.52;100.00
46267;BME280;31998;48.798;15.066;2022-10-16T07:13:02;96048.34;;;12.63;100.00
46267;BME280;31998;48.798;15.066;2022-10-16T07:15:27;96044.78;;;12.68;100.00
46267;BME280;31998;48.798;15.066;2022-10-16T07:17:53;96033.59;;;12.74;100.00
46267;BME280;31998;48.798;15.066;2022-10-16T07:20:19;96049.97;;;12.97;100.00
46267;BME280;31998;48.798;15.066;2022-10-16T07:22:44;96047.41;;;13.06;100.00
46267;BME280;31998;48.798;15.066;2022-10-16T07:25:10;96057.31;;;13.10;100.00
46267;BME280;31998;48.798;15.066;2022-10-16T07:27:36;96067.00;;;13.30;100.00
46267;BME280;31998;48.798;15.066;2022-10-16T07:30:02;96067.81;;;13.30;100.00
46267;BME280;31998;48.798;15.066;2022-10-16T07:32:27;96068.22;;;13.38;100.00
46267;BME280;31998;48.798;15.066;2022-10-16T07:34:53;96062.22;;;13.54;100.00
46267;BME280;31998;48.798;15.066;2022-10-16T07:37:19;96063.34;;;13.67;100.00
46267;BME280;31998;48.798;15.066;2022-10-16T07:39:44;96064.03;;;13.87;100.00
46267;BME280;31998;48.798;15.066;2022-10-16T07:42:09;96064.97;;;13.96;100.00
46267;BME280;31998;48.798;15.066;2022-10-16T07:44:35;96061.22;;;14.05;100.00
46267;BME280;31998;48.798;15.066;2022-10-16T07:47:00;96069.81;;;14.21;100.00
46267;BME280;31998;48.798;15.066;2022-10-16T07:49:25;96071.63;;;14.26;100.00
46267;BME280;31998;48.798;15.066;2022-10-16T07:51:51;96074.56;;;14.16;100.00
46267;BME280;31998;48.798;15.066;2022-10-16T07:54:16;96076.06;;;14.08;100.00
46267;BME280;31998;48.798;15.066;2022-10-16T07:56:42;96060.81;;;14.12;100.00
46267;BME280;31998;48.798;15.066;2022-10-16T07:59:07;96076.53;;;14.37;100.00
46267;BME280;31998;48.798;15.066;2022-10-16T08:01:33;96073.84;;;14.74;100.00
46267;BME280;31998;48.798;15.066;2022-10-16T08:03:58;96076.69;;;15.13;100.00
46267;BME280;31998;48.798;15.066;2022-10-16T08:06:23;96077.31;;;15.64;100.00
46267;BME280;31998;48.798;15.066;2022-10-16T08:08:49;96071.78;;;16.26;100.00
46267;BME280;31998;48.798;15.066;2022-10-16T08:11:14;96058.25;;;16.69;100.00
46267;BME280;31998;48.798;15.066;2022-10-16T08:13:41;96063.06;;;16.81;100.00
46267;BME280;31998;48.798;15.066;2022-10-16T08:16:07;96068.97;;;17.09;100.00
46267;BME280;31998;48.798;15.066;2022-10-16T08:18:38;96067.81;;;17.27;100.00
46267;BME280;31998;48.798;15.066;2022-10-16T08:21:05;96072.63;;;17.30;100.00
46267;BME280;31998;48.798;15.066;2022-10-16T08:23:30;96072.19;;;17.02;100.00
46267;BME280;31998;48.798;15.066;2022-10-16T08:25:56;96079.38;;;16.90;100.00
46267;BME280;31998;48.798;15.066;2022-10-16T08:28:27;96076.63;;;16.64;100.00
46267;BME280;31998;48.798;15.066;2022-10-16T08:30:52;96069.91;;;16.44;100.00
46267;BME280;31998;48.798;15.066;2022-10-16T08:33:18;96078.53;;;16.37;100.00
46267;BME280;31998;48.798;15.066;2022-10-16T08:35:51;96088.28;;;16.47;100.00
46267;BME280;31998;48.798;15.066;2022-10-16T08:38:16;96082.69;;;16.52;100.00
46267;BME280;31998;48.798;15.066;2022-10-16T08:40:42;96072.78;;;16.47;100.00
46267;BME280;31998;48.798;15.066;2022-10-16T08:46:14;96067.75;;;17.53;100.00
46267;BME280;31998;48.798;15.066;2022-10-16T08:49:01;96065.44;;;18.20;100.00
46267;BME280;31998;48.798;15.066;2022-10-16T08:51:33;96067.25;;;18.87;100.00
46267;BME280;31998;48.798;15.066;2022-10-16T08:54:05;96076.69;;;19.43;100.00
46267;BME280;31998;48.798;15.066;2022-10-16T08:56:31;96079.81;;;19.66;100.00
46267;BME280;31998;48.798;15.066;2022-10-16T08:58:59;96074.47;;;19.82;100.00
46267;BME280;31998;48.798;15.066;2022-10-16T09:01:35;96085.31;;;19.78;100.00
46267;BME280;31998;48.798;15.066;2022-10-16T09:06:47;96080.56;;;19.55;100.00
46267;BME280;31998;48.798;15.066;2022-10-16T09:12:36;96081.50;;;19.59;100.00
46267;BME280;31998;48.798;15.066;2022-10-16T09:18:06;96088.25;;;19.73;100.00
46267;BME280;31998;48.798;15.066;2022-10-16T09:23:34;96091.00;;;19.40;100.00
46267;BME280;31998;48.798;15.066;2022-10-16T09:26:01;96100.81;;;19.20;100.00
46267;BME280;31998;48.798;15.066;2022-10-16T09:28:27;96098.28;;;19.15;100.00
46267;BME280;31998;48.798;15.066;2022-10-16T09:30:53;96098.16;;;19.12;100.00
46267;BME280;31998;48.798;15.066;2022-10-16T09:33:21;96096.16;;;19.00;100.00
46267;BME280;31998;48.798;15.066;2022-10-16T09:35:50;96102.75;;;18.99;100.00
46267;BME280;31998;48.798;15.066;2022-10-16T09:40:50;96106.19;;;19.29;100.00
46267;BME280;31998;48.798;15.066;2022-10-16T09:46:07;96124.28;;;19.34;100.00
46267;BME280;31998;48.798;15.066;2022-10-16T09:48:43;96133.34;;;19.25;100.00
46267;BME280;31998;48.798;15.066;2022-10-16T09:51:22;96124.44;;;19.16;100.00
46267;BME280;31998;48.798;15.066;2022-10-16T09:53:48;96130.66;;;19.05;100.00
46267;BME280;31998;48.798;15.066;2022-10-16T09:56:25;96123.97;;;19.14;100.00
46267;BME280;31998;48.798;15.066;2022-10-16T09:59:00;96121.75;;;19.29;100.00
46267;BME280;31998;48.798;15.066;2022-10-16T10:01:32;96122.94;;;19.40;100.00
46267;BME280;31998;48.798;15.066;2022-10-16T10:04:01;96123.97;;;19.68;100.00
46267;BME280;31998;48.798;15.066;2022-10-16T10:06:31;96115.75;;;20.14;100.00
46267;BME280;31998;48.798;15.066;2022-10-16T10:11:55;96122.59;;;20.69;100.00
46267;BME280;31998;48.798;15.066;2022-10-16T10:14:24;96124.63;;;20.84;100.00
46267;BME280;31998;48.798;15.066;2022-10-16T10:17:02;96120.72;;;20.97;100.00
46267;BME280;31998;48.798;15.066;2022-10-16T10:19:46;96124.56;;;21.08;100.00
46267;BME280;31998;48.798;15.066;2022-10-16T10:24:55;96112.59;;;21.69;100.00
46267;BME280;31998;48.798;15.066;2022-10-16T10:27:48;96106.84;;;21.74;100.00
46267;BME280;31998;48.798;15.066;2022-10-16T10:35:51;96099.09;;;22.08;100.00
46267;BME280;31998;48.798;15.066;2022-10-16T10:41:02;96128.50;;;22.39;100.00
46267;BME280;31998;48.798;15.066;2022-10-16T10:46:04;96123.59;;;22.01;100.00
46267;BME280;31998;48.798;15.066;2022-10-16T10:51:38;96129.47;;;21.71;100.00
46267;BME280;31998;48.798;15.066;2022-10-16T10:54:14;96128.03;;;21.61;100.00
46267;BME280;31998;48.798;15.066;2022-10-16T11:05:46;96124.41;;;21.29;100.00
46267;BME280;31998;48.798;15.066;2022-10-16T11:08:32;96122.91;;;21.60;100.00
46267;BME280;31998;48.798;15.066;2022-10-16T11:11:03;96125.88;;;21.83;100.00
46267;BME280;31998;48.798;15.066;2022-10-16T11:13:39;96106.00;;;22.02;100.00
46267;BME280;31998;48.798;15.066;2022-10-16T11:16:20;96117.50;;;22.23;100.00
46267;BME280;31998;48.798;15.066;2022-10-16T11:19:37;96118.06;;;22.29;100.00
46267;BME280;31998;48.798;15.066;2022-10-16T11:22:27;96112.09;;;22.42;100.00
46267;BME280;31998;48.798;15.066;2022-10-16T11:27:55;96107.72;;;22.73;100.00
46267;BME280;31998;48.798;15.066;2022-10-16T11:30:22;96110.34;;;22.85;100.00
46267;BME280;31998;48.798;15.066;2022-10-16T11:35:53;96103.19;;;23.16;100.00
46267;BME280;31998;48.798;15.066;2022-10-16T11:40:52;96115.16;;;23.08;100.00
46267;BME280;31998;48.798;15.066;2022-10-16T11:43:25;96116.63;;;23.21;100.00
46267;BME280;31998;48.798;15.066;2022-10-16T11:45:55;96112.38;;;23.04;100.00
46267;BME280;31998;48.798;15.066;2022-10-16T11:48:27;96110.94;;;23.10;100.00
46267;BME280;31998;48.798;15.066;2022-10-16T11:51:20;96097.63;;;23.12;100.00
46267;BME280;31998;48.798;15.066;2022-10-16T11:54:18;96111.88;;;23.18;100.00
46267;BME280;31998;48.798;15.066;2022-10-16T11:56:48;96112.59;;;23.15;100.00
46267;BME280;31998;48.798;15.066;2022-10-16T11:59:36;96113.31;;;23.12;100.00
46267;BME280;31998;48.798;15.066;2022-10-16T12:05:18;96108.38;;;23.21;100.00
46267;BME280;31998;48.798;15.066;2022-10-16T12:08:23;96106.22;;;23.11;100.00
46267;BME280;31998;48.798;15.066;2022-10-16T12:10:44;96114.06;;;23.28;100.00
46267;BME280;31998;48.798;15.066;2022-10-16T12:13:30;96108.84;;;23.62;100.00
46267;BME280;31998;48.798;15.066;2022-10-16T12:16:07;96111.72;;;23.49;100.00
46267;BME280;31998;48.798;15.066;2022-10-16T12:18:45;96113.22;;;23.08;100.00
46267;BME280;31998;48.798;15.066;2022-10-16T12:21:13;96112.94;;;22.78;100.00
46267;BME280;31998;48.798;15.066;2022-10-16T12:23:50;96109.31;;;22.74;100.00
46267;BME280;31998;48.798;15.066;2022-10-16T12:26:26;96112.50;;;22.76;100.00
46267;BME280;31998;48.798;15.066;2022-10-16T12:28:53;96093.25;;;22.57;100.00
46267;BME280;31998;48.798;15.066;2022-10-16T12:31:19;96112.91;;;22.59;100.00
46267;BME280;31998;48.798;15.066;2022-10-16T12:37:11;96114.00;;;22.73;100.00
46267;BME280;31998;48.798;15.066;2022-10-16T12:39:38;96113.38;;;22.80;100.00
46267;BME280;31998;48.798;15.066;2022-10-16T12:42:19;96106.13;;;22.88;100.00
46267;BME280;31998;48.798;15.066;2022-10-16T12:44:45;96119.03;;;22.87;100.00
46267;BME280;31998;48.798;15.066;2022-10-16T12:47:46;96117.47;;;22.86;100.00
46267;BME280;31998;48.798;15.066;2022-10-16T12:50:29;96114.16;;;22.81;100.00
46267;BME280;31998;48.798;15.066;2022-10-16T12:52:56;96116.75;;;22.89;100.00
46267;BME280;31998;48.798;15.066;2022-10-16T12:55:22;96117.09;;;22.88;100.00
46267;BME280;31998;48.798;15.066;2022-10-16T13:00:38;96119.28;;;22.63;100.00
46267;BME280;31998;48.798;15.066;2022-10-16T13:14:20;96136.47;;;22.95;100.00
46267;BME280;31998;48.798;15.066;2022-10-16T13:19:33;96129.34;;;23.10;100.00
46267;BME280;31998;48.798;15.066;2022-10-16T13:22:05;96126.47;;;23.02;100.00
46267;BME280;31998;48.798;15.066;2022-10-16T13:30:20;96130.03;;;22.87;100.00
46267;BME280;31998;48.798;15.066;2022-10-16T13:33:01;96125.88;;;22.78;100.00
46267;BME280;31998;48.798;15.066;2022-10-16T13:35:30;96133.66;;;22.91;100.00
46267;BME280;31998;48.798;15.066;2022-10-16T13:38:13;96138.53;;;22.82;100.00
46267;BME280;31998;48.798;15.066;2022-10-16T13:40:58;96143.56;;;22.80;100.00
46267;BME280;31998;48.798;15.066;2022-10-16T13:46:01;96149.91;;;23.00;100.00
46267;BME280;31998;48.798;15.066;2022-10-16T13:48:27;96146.53;;;23.07;100.00
46267;BME280;31998;48.798;15.066;2022-10-16T13:53:30;96136.88;;;23.13;100.00
46267;BME280;31998;48.798;15.066;2022-10-16T13:55:57;96149.22;;;23.03;100.00
46267;BME280;31998;48.798;15.066;2022-10-16T13:58:22;96150.13;;;22.91;100.00
46267;BME280;31998;48.798;15.066;2022-10-16T14:01:05;96140.66;;;22.89;100.00
46267;BME280;31998;48.798;15.066;2022-10-16T14:03:32;96139.06;;;22.88;100.00
46267;BME280;31998;48.798;15.066;2022-10-16T14:06:03;96148.44;;;23.02;100.00
46267;BME280;31998;48.798;15.066;2022-10-16T14:08:31;96141.94;;;23.11;100.00
46267;BME280;31998;48.798;15.066;2022-10-16T14:10:59;96147.28;;;23.23;100.00
46267;BME280;31998;48.798;15.066;2022-10-16T14:15:56;96154.28;;;23.20;100.00
46267;BME280;31998;48.798;15.066;2022-10-16T14:18:25;96151.31;;;23.10;100.00
46267;BME280;31998;48.798;15.066;2022-10-16T14:20:52;96154.06;;;23.10;100.00
46267;BME280;31998;48.798;15.066;2022-10-16T14:23:29;96155.50;;;23.04;100.00
46267;BME280;31998;48.798;15.066;2022-10-16T14:28:33;96160.25;;;22.40;100.00
46267;BME280;31998;48.798;15.066;2022-10-16T14:31:00;96159.19;;;22.29;100.00
46267;BME280;31998;48.798;15.066;2022-10-16T14:38:26;96150.75;;;22.06;100.00
46267;BME280;31998;48.798;15.066;2022-10-16T14:40:51;96148.41;;;21.76;100.00
46267;BME280;31998;48.798;15.066;2022-10-16T14:43:21;96156.00;;;21.39;100.00
46267;BME280;31998;48.798;15.066;2022-10-16T14:45:53;96157.28;;;21.05;100.00
46267;BME280;31998;48.798;15.066;2022-10-16T14:48:19;96162.34;;;20.91;100.00
46267;BME280;31998;48.798;15.066;2022-10-16T14:50:46;96162.13;;;20.83;100.00